createdAt,value
2023-08-12T00:01:11.563Z,28.90
2023-08-12T00:03:38.710Z,28.07
2023-08-12T00:06:05.831Z,29.97
2023-08-12T00:08:32.963Z,29.20
2023-08-12T00:11:00.112Z,28.70
2023-08-12T00:13:28.597Z,28.77
2023-08-12T00:15:55.775Z,30.23
2023-08-12T00:18:23.599Z,27.57
2023-08-12T00:20:50.715Z,29.17
2023-08-12T00:23:17.908Z,29.87
2023-08-12T00:25:45.028Z,29.50
2023-08-12T00:28:12.218Z,32.20
2023-08-12T00:30:40.699Z,30.60
2023-08-12T00:33:09.272Z,31.40
2023-08-12T00:35:37.024Z,33.77
2023-08-12T00:38:04.279Z,31.50
2023-08-12T00:40:31.412Z,30.30
2023-08-12T00:42:58.524Z,30.67
2023-08-12T00:45:25.626Z,30.80
2023-08-12T00:47:54.279Z,31.47
2023-08-12T00:50:21.612Z,35.17
2023-08-12T00:52:49.062Z,32.40
2023-08-12T00:55:16.495Z,30.27
2023-08-12T00:57:43.950Z,31.23
2023-08-12T01:00:11.551Z,29.97
2023-08-12T01:02:38.759Z,24.60
2023-08-12T01:05:07.989Z,28.20
2023-08-12T01:07:35.971Z,28.47
2023-08-12T01:10:03.233Z,31.63
2023-08-12T01:12:32.833Z,30.20
2023-08-12T01:15:03.285Z,28.50
2023-08-12T01:17:31.155Z,28.60
2023-08-12T01:19:58.333Z,28.97
2023-08-12T01:22:27.420Z,26.50
2023-08-12T01:24:56.843Z,26.30
2023-08-12T01:27:24.082Z,27.63
2023-08-12T01:29:53.053Z,23.63
2023-08-12T01:32:25.001Z,25.07
2023-08-12T01:34:55.091Z,26.63
2023-08-12T01:37:25.018Z,27.93
2023-08-12T01:39:54.154Z,28.17
2023-08-12T01:42:22.733Z,27.33
2023-08-12T01:44:50.038Z,25.27
2023-08-12T01:47:17.207Z,25.83
2023-08-12T01:49:44.318Z,28.17
2023-08-12T01:52:11.472Z,24.60
2023-08-12T01:54:39.162Z,25.20
2023-08-12T01:57:07.650Z,26.33
2023-08-12T01:59:36.125Z,23.87
2023-08-12T02:02:03.320Z,26.00
2023-08-12T02:04:31.663Z,22.33
2023-08-12T02:06:58.982Z,24.67
2023-08-12T02:09:26.115Z,23.40
2023-08-12T02:11:53.209Z,23.30
2023-08-12T02:14:20.371Z,23.50
2023-08-12T02:16:48.849Z,22.27
2023-08-12T02:19:16.103Z,23.50
2023-08-12T02:21:43.176Z,23.73
2023-08-12T02:24:10.491Z,22.80
2023-08-12T02:26:38.996Z,24.43
2023-08-12T02:29:06.169Z,23.83
2023-08-12T02:31:33.401Z,22.70
2023-08-12T02:34:01.905Z,22.10
2023-08-12T02:36:29.015Z,22.13
2023-08-12T02:38:56.530Z,23.33
2023-08-12T02:41:23.619Z,23.93
2023-08-12T02:43:50.760Z,23.07
2023-08-12T02:46:17.920Z,20.87
2023-08-12T02:48:45.163Z,19.20
2023-08-12T02:51:13.615Z,22.00
2023-08-12T02:53:40.783Z,20.77
2023-08-12T02:56:08.129Z,19.40
2023-08-12T02:58:35.315Z,18.77
2023-08-12T03:01:02.660Z,19.47
2023-08-12T03:03:29.854Z,16.40
2023-08-12T03:05:57.025Z,17.23
2023-08-12T03:08:25.461Z,17.50
2023-08-12T03:10:59.225Z,16.17
2023-08-12T03:13:26.366Z,17.37
2023-08-12T03:15:53.565Z,17.20
2023-08-12T03:18:20.824Z,17.67
2023-08-12T03:20:47.978Z,16.30
2023-08-12T03:23:16.024Z,18.50
2023-08-12T03:25:48.100Z,17.70
2023-08-12T03:28:15.805Z,17.83
2023-08-12T03:30:43.781Z,17.30
2023-08-12T03:33:11.220Z,17.50
2023-08-12T03:35:38.885Z,17.10
2023-08-12T03:38:06.720Z,18.40
2023-08-12T03:40:34.025Z,19.40
2023-08-12T03:43:02.804Z,18.70
2023-08-12T03:45:30.054Z,16.90
2023-08-12T03:47:57.322Z,20.23
2023-08-12T03:50:24.660Z,17.63
2023-08-12T03:52:52.084Z,18.00
2023-08-12T03:55:19.314Z,21.60
2023-08-12T03:57:46.518Z,21.80
2023-08-12T04:00:15.270Z,20.13
2023-08-12T04:02:43.415Z,18.93
2023-08-12T04:05:11.257Z,18.77
2023-08-12T04:07:38.495Z,19.97
2023-08-12T04:10:05.936Z,18.17
2023-08-12T04:12:33.061Z,15.80
2023-08-12T04:15:00.195Z,16.40
2023-08-12T04:17:28.705Z,16.10
2023-08-12T04:19:55.814Z,15.30
2023-08-12T04:22:22.984Z,18.33
2023-08-12T04:24:50.858Z,16.90
2023-08-12T04:27:18.004Z,14.40
2023-08-12T04:29:47.601Z,16.13
2023-08-12T04:32:14.905Z,13.90
2023-08-12T04:34:43.586Z,15.80
2023-08-12T04:37:11.198Z,15.37
2023-08-12T04:39:38.775Z,15.43
2023-08-12T04:42:06.339Z,13.60
2023-08-12T04:44:33.447Z,15.00
2023-08-12T04:47:00.872Z,14.13
2023-08-12T04:49:29.235Z,12.60
2023-08-12T04:51:57.657Z,13.57
2023-08-12T04:54:24.921Z,14.40
2023-08-12T04:56:52.540Z,13.13
2023-08-12T04:59:19.693Z,11.93
2023-08-12T05:02:02.234Z,12.33
2023-08-12T05:04:31.617Z,12.03
2023-08-12T05:07:00.362Z,11.40
2023-08-12T05:09:27.493Z,11.80
2023-08-12T05:11:54.564Z,12.20
2023-08-12T05:14:21.816Z,11.90
2023-08-12T05:16:49.618Z,11.00
2023-08-12T05:19:16.739Z,11.20
2023-08-12T05:21:43.876Z,14.20
2023-08-12T05:24:12.520Z,14.33
2023-08-12T05:26:39.824Z,14.37
2023-08-12T05:29:06.974Z,12.87
2023-08-12T05:31:34.093Z,14.40
2023-08-12T05:34:01.235Z,12.60
2023-08-12T05:36:28.355Z,13.97
2023-08-12T05:38:55.579Z,12.87
2023-08-12T05:41:24.063Z,11.73
2023-08-12T05:43:51.214Z,14.17
2023-08-12T05:46:18.348Z,12.27
2023-08-12T05:48:45.486Z,14.73
2023-08-12T05:51:12.595Z,15.20
2023-08-12T05:53:39.736Z,13.67
2023-08-12T05:56:06.860Z,13.40
2023-08-12T05:58:35.295Z,14.40
2023-08-12T06:01:02.390Z,11.63
2023-08-12T06:03:29.521Z,12.53
2023-08-12T06:05:56.689Z,13.30
2023-08-12T06:08:23.838Z,11.90
2023-08-12T06:10:50.922Z,12.67
2023-08-12T06:13:18.013Z,13.13
2023-08-12T06:15:46.682Z,12.67
2023-08-12T06:18:13.826Z,13.60
2023-08-12T06:20:41.005Z,13.90
2023-08-12T06:23:08.086Z,16.83
2023-08-12T06:25:35.413Z,16.20
2023-08-12T06:28:02.527Z,17.33
2023-08-12T06:30:29.611Z,15.30
2023-08-12T06:32:58.106Z,15.47
2023-08-12T06:35:25.224Z,14.57
2023-08-12T06:37:52.383Z,17.33
2023-08-12T06:40:19.501Z,15.43
2023-08-12T06:42:46.659Z,17.43
2023-08-12T06:45:13.799Z,16.27
2023-08-12T06:47:40.975Z,16.70
2023-08-12T06:50:09.803Z,18.03
2023-08-12T06:52:36.955Z,16.17
2023-08-12T06:55:04.199Z,16.80
2023-08-12T06:57:31.380Z,18.90
2023-08-12T06:59:58.482Z,18.70
2023-08-12T07:02:25.626Z,17.20
2023-08-12T07:04:52.739Z,16.27
2023-08-12T07:07:21.169Z,17.87
2023-08-12T07:09:48.300Z,16.37
2023-08-12T07:12:15.439Z,14.53
2023-08-12T07:14:42.531Z,11.57
2023-08-12T07:17:09.671Z,13.43
2023-08-12T07:19:36.834Z,12.10
2023-08-12T07:22:04.079Z,12.13
2023-08-12T07:24:32.540Z,11.77
2023-08-12T07:26:59.677Z,12.67
2023-08-12T07:29:26.801Z,12.67
2023-08-12T07:31:53.904Z,12.23
2023-08-12T07:34:21.075Z,12.30
2023-08-12T07:36:48.172Z,11.00
2023-08-12T07:39:15.286Z,12.23
2023-08-12T07:41:43.783Z,10.57
2023-08-12T07:44:10.909Z,10.37
2023-08-12T07:46:38.076Z,9.90
2023-08-12T07:49:05.354Z,10.03
2023-08-12T07:51:32.417Z,10.53
2023-08-12T07:53:59.513Z,9.00
2023-08-12T07:56:26.652Z,9.53
2023-08-12T07:58:55.129Z,8.70
2023-08-12T08:01:22.222Z,9.80
2023-08-12T08:03:49.334Z,8.30
2023-08-12T08:06:16.525Z,8.27
2023-08-12T08:08:43.679Z,7.37
2023-08-12T08:11:10.810Z,7.30
2023-08-12T08:13:37.905Z,7.17
2023-08-12T08:16:06.411Z,6.23
2023-08-12T08:18:33.510Z,6.27
2023-08-12T08:21:05.502Z,6.07
2023-08-12T08:23:32.917Z,6.10
2023-08-12T08:26:00.044Z,5.57
2023-08-12T08:28:27.124Z,5.30
2023-08-12T08:30:54.265Z,5.10
2023-08-12T08:33:22.718Z,5.77
2023-08-12T08:35:49.848Z,4.57
2023-08-12T08:38:16.986Z,4.93
2023-08-12T08:40:44.092Z,4.50
2023-08-12T08:43:11.267Z,4.50
2023-08-12T08:45:39.138Z,3.70
2023-08-12T08:48:06.783Z,4.73
2023-08-12T08:50:35.546Z,3.80
2023-08-12T08:53:03.331Z,4.10
2023-08-12T08:55:30.498Z,4.30
2023-08-12T09:00:29.076Z,3.83
2023-08-12T09:02:56.600Z,3.57
2023-08-12T09:05:24.124Z,4.10
2023-08-12T09:07:52.984Z,3.90
2023-08-12T09:10:22.216Z,4.00
2023-08-12T09:12:49.376Z,3.83
2023-08-12T09:15:17.795Z,3.97
2023-08-12T09:17:45.018Z,4.10
2023-08-12T09:20:12.618Z,3.87
2023-08-12T09:22:39.845Z,3.83
2023-08-12T09:25:09.261Z,4.30
2023-08-12T09:27:37.178Z,3.40
2023-08-12T09:30:04.621Z,4.37
2023-08-12T09:32:31.804Z,4.00
2023-08-12T09:34:59.010Z,3.70
2023-08-12T09:37:26.341Z,3.20
2023-08-12T09:39:53.900Z,3.50
2023-08-12T09:42:22.319Z,3.27
2023-08-12T09:44:49.399Z,3.47
2023-08-12T09:47:16.494Z,3.07
2023-08-12T09:49:43.561Z,2.80
2023-08-12T09:52:11.115Z,3.10
2023-08-12T09:54:38.555Z,3.07
2023-08-12T09:57:09.823Z,3.00
2023-08-12T09:59:39.605Z,2.57
2023-08-12T10:02:07.182Z,2.50
2023-08-12T10:04:37.072Z,2.77
2023-08-12T10:07:04.274Z,2.60
2023-08-12T10:09:32.146Z,2.07
2023-08-12T10:11:59.770Z,2.53
2023-08-12T10:14:27.302Z,2.33
2023-08-12T10:17:04.867Z,2.43
2023-08-12T10:19:33.533Z,1.90
2023-08-12T10:22:00.878Z,2.30
2023-08-12T10:24:28.482Z,2.30
2023-08-12T10:26:56.007Z,2.40
2023-08-12T10:29:24.702Z,2.10
2023-08-12T10:31:51.937Z,2.10
2023-08-12T10:34:24.113Z,1.97
2023-08-12T10:37:02.330Z,2.43
2023-08-12T10:39:32.726Z,1.87
2023-08-12T10:42:00.271Z,2.07
2023-08-12T10:44:28.432Z,1.60
2023-08-12T10:46:55.817Z,1.83
2023-08-12T10:49:24.405Z,1.40
2023-08-12T10:51:52.271Z,1.53
2023-08-12T10:54:21.677Z,1.63
2023-08-12T10:57:07.227Z,1.70
2023-08-12T10:59:50.393Z,1.80
2023-08-12T11:02:18.066Z,1.30
2023-08-12T11:04:49.714Z,1.40
2023-08-12T11:07:17.218Z,1.87
2023-08-12T11:09:44.379Z,2.00
2023-08-12T11:12:11.656Z,1.90
2023-08-12T11:14:48.747Z,2.23
2023-08-12T11:17:16.051Z,1.80
2023-08-12T11:19:43.417Z,1.60
2023-08-12T11:22:12.923Z,1.70
2023-08-12T11:24:42.167Z,2.20
2023-08-12T11:27:11.151Z,2.40
2023-08-12T11:29:38.782Z,3.07
2023-08-12T11:32:06.823Z,2.07
2023-08-12T11:34:34.108Z,2.40
2023-08-12T11:37:02.065Z,1.63
2023-08-12T11:39:31.471Z,1.63
2023-08-12T11:41:58.699Z,1.53
2023-08-12T11:44:25.871Z,1.77
2023-08-12T11:46:53.079Z,1.40
2023-08-12T11:49:20.373Z,1.47
2023-08-12T11:51:48.769Z,1.50
2023-08-12T11:54:16.461Z,1.23
2023-08-12T11:56:45.026Z,1.30
2023-08-12T11:59:12.185Z,1.47
2023-08-12T12:01:39.369Z,1.70
2023-08-12T12:04:06.708Z,1.20
2023-08-12T12:06:34.749Z,1.43
2023-08-12T12:09:02.439Z,1.63
2023-08-12T12:11:29.580Z,1.20
2023-08-12T12:13:58.098Z,1.50
2023-08-12T12:16:25.328Z,1.40
2023-08-12T12:18:59.024Z,1.20
2023-08-12T12:21:26.144Z,1.40
2023-08-12T12:23:54.224Z,1.50
2023-08-12T12:26:21.356Z,1.30
2023-08-12T12:28:48.501Z,1.20
2023-08-12T12:31:16.999Z,1.50
2023-08-12T12:33:44.137Z,1.43
2023-08-12T12:36:11.263Z,1.10
2023-08-12T12:38:38.355Z,1.13
2023-08-12T12:41:05.475Z,1.10
2023-08-12T12:43:32.573Z,1.17
2023-08-12T12:45:59.748Z,1.73
2023-08-12T12:48:28.348Z,1.20
2023-08-12T12:50:55.444Z,1.63
2023-08-12T12:53:22.591Z,1.60
2023-08-12T12:55:49.803Z,1.97
2023-08-12T12:58:16.999Z,2.17
2023-08-12T13:00:44.109Z,2.00
2023-08-12T13:03:11.305Z,1.90
2023-08-12T13:05:39.834Z,3.00
2023-08-12T13:08:07.325Z,2.90
2023-08-12T13:10:35.313Z,4.73
2023-08-12T13:13:02.451Z,3.90
2023-08-12T13:15:29.626Z,4.60
2023-08-12T13:17:56.824Z,5.40
2023-08-12T13:20:24.134Z,6.30
2023-08-12T13:22:52.643Z,5.40
2023-08-12T13:25:19.794Z,6.23
2023-08-12T13:27:46.902Z,6.53
2023-08-12T13:30:14.164Z,5.90
2023-08-12T13:32:41.312Z,6.10
2023-08-12T13:35:08.853Z,6.03
2023-08-12T13:37:35.919Z,7.20
2023-08-12T13:40:04.697Z,6.20
2023-08-12T13:42:31.790Z,6.20
2023-08-12T13:45:00.853Z,6.30
2023-08-12T13:47:28.447Z,5.60
2023-08-12T13:49:55.621Z,6.00
2023-08-12T13:52:22.696Z,5.73
2023-08-12T13:54:49.794Z,5.33
2023-08-12T13:57:18.226Z,5.70
2023-08-12T13:59:45.366Z,5.10
2023-08-12T14:02:12.704Z,4.93
2023-08-12T14:04:40.020Z,4.20
2023-08-12T14:07:07.145Z,4.57
2023-08-12T14:09:34.698Z,3.50
2023-08-12T14:12:01.778Z,2.93
2023-08-12T14:14:31.372Z,2.60
2023-08-12T14:16:58.612Z,2.43
2023-08-12T14:19:25.837Z,2.33
2023-08-12T14:21:52.908Z,2.80
2023-08-12T14:24:20.034Z,3.10
2023-08-12T14:26:47.200Z,3.30
2023-08-12T14:29:14.334Z,2.73
2023-08-12T14:31:42.862Z,2.67
2023-08-12T14:34:09.992Z,4.23
2023-08-12T14:36:37.106Z,2.50
2023-08-12T14:39:04.257Z,1.60
2023-08-12T14:41:31.430Z,2.03
2023-08-12T14:43:58.539Z,2.07
2023-08-12T14:46:25.798Z,1.87
2023-08-12T14:48:54.304Z,1.63
2023-08-12T14:51:21.434Z,1.63
2023-08-12T14:53:51.581Z,1.77
2023-08-12T14:56:18.751Z,2.23
2023-08-12T14:58:46.086Z,2.07
2023-08-12T15:01:13.250Z,1.60
2023-08-12T15:03:40.454Z,1.60
2023-08-12T15:06:09.157Z,1.43
2023-08-12T15:08:36.286Z,1.57
2023-08-12T15:11:03.382Z,1.50
2023-08-12T15:13:30.513Z,1.90
2023-08-12T15:15:57.669Z,1.50
2023-08-12T15:18:24.913Z,2.10
2023-08-12T15:20:52.071Z,1.70
2023-08-12T15:23:20.553Z,1.67
2023-08-12T15:25:47.784Z,1.70
2023-08-12T15:28:14.918Z,1.67
2023-08-12T15:30:42.085Z,1.80
2023-08-12T15:33:09.278Z,1.40
2023-08-12T15:35:36.374Z,1.60
2023-08-12T15:38:03.594Z,1.67
2023-08-12T15:40:32.107Z,1.60
2023-08-12T15:42:59.249Z,1.83
2023-08-12T15:45:26.401Z,1.40
2023-08-12T15:47:53.714Z,2.17
2023-08-12T15:50:20.850Z,1.70
2023-08-12T15:52:47.986Z,2.10
2023-08-12T15:55:15.159Z,1.67
2023-08-12T15:57:43.583Z,1.70
2023-08-12T16:00:11.301Z,2.30
2023-08-12T16:02:38.478Z,1.63
2023-08-12T16:05:06.203Z,1.63
2023-08-12T16:07:33.371Z,1.88
2023-08-12T16:10:00.519Z,1.92
2023-08-12T16:12:27.721Z,2.00
2023-08-12T16:14:56.219Z,2.45
2023-08-12T16:17:23.341Z,2.35
2023-08-12T16:19:50.679Z,2.00
2023-08-12T16:22:17.791Z,2.45
2023-08-12T16:24:44.959Z,2.50
2023-08-12T16:27:12.074Z,2.40
2023-08-12T16:29:39.206Z,2.07
2023-08-12T16:32:07.714Z,2.67
2023-08-12T16:34:34.827Z,2.47
2023-08-12T16:37:19.756Z,2.73
2023-08-12T16:39:48.415Z,2.37
2023-08-12T16:42:15.650Z,2.80
2023-08-12T16:44:42.966Z,2.70
2023-08-12T16:47:12.121Z,2.40
2023-08-12T16:49:39.306Z,2.27
2023-08-12T16:52:06.545Z,2.33
2023-08-12T16:54:33.648Z,2.27
2023-08-12T16:57:00.794Z,2.57
2023-08-12T16:59:27.931Z,2.35
2023-08-12T17:01:55.013Z,2.20
2023-08-12T17:04:23.464Z,2.92
2023-08-12T17:06:50.563Z,2.53
2023-08-12T17:09:17.843Z,2.03
2023-08-12T17:11:45.080Z,2.90
2023-08-12T17:14:12.233Z,2.70
2023-08-12T17:16:39.691Z,3.07
2023-08-12T17:19:06.969Z,2.80
2023-08-12T17:21:35.487Z,2.67
2023-08-12T17:24:02.620Z,2.63
2023-08-12T17:26:29.745Z,3.33
2023-08-12T17:28:56.860Z,2.77
2023-08-12T17:31:24.026Z,2.70
2023-08-12T17:33:51.203Z,2.43
2023-08-12T17:36:18.318Z,2.67
2023-08-12T17:38:46.892Z,2.60
2023-08-12T17:41:14.072Z,3.30
2023-08-12T17:43:41.198Z,2.50
2023-08-12T17:46:09.239Z,2.97
2023-08-12T17:48:36.404Z,2.70
2023-08-12T17:51:03.988Z,2.63
2023-08-12T17:53:31.396Z,2.27
2023-08-12T17:55:59.935Z,2.80
2023-08-12T17:58:27.170Z,2.20
2023-08-12T18:00:54.310Z,2.57
2023-08-12T18:03:21.618Z,2.20
2023-08-12T18:05:48.856Z,2.13
2023-08-12T18:08:16.052Z,2.50
2023-08-12T18:10:43.169Z,1.87
2023-08-12T18:13:11.740Z,2.60
2023-08-12T18:15:38.863Z,2.10
2023-08-12T18:18:06.066Z,2.10
2023-08-12T18:20:33.191Z,2.33
2023-08-12T18:23:00.309Z,2.30
2023-08-12T18:25:27.524Z,2.63
2023-08-12T18:27:54.620Z,2.37
2023-08-12T18:30:23.392Z,2.10
2023-08-12T18:32:50.512Z,2.23
2023-08-12T18:35:17.640Z,2.30
2023-08-12T18:37:44.793Z,2.27
2023-08-12T18:40:12.259Z,2.10
2023-08-12T18:42:39.405Z,2.23
2023-08-12T18:45:06.779Z,2.03
2023-08-12T18:47:35.218Z,2.50
2023-08-12T18:50:02.425Z,2.43
2023-08-12T18:52:29.607Z,2.40
2023-08-12T18:54:56.799Z,2.57
2023-08-12T18:57:23.864Z,1.90
2023-08-12T18:59:50.950Z,2.40
2023-08-12T19:02:18.076Z,2.37
2023-08-12T19:04:46.520Z,2.87
2023-08-12T19:07:13.611Z,2.83
2023-08-12T19:09:40.735Z,2.53
2023-08-12T19:12:08.341Z,2.73
2023-08-12T19:14:35.525Z,3.20
2023-08-12T19:17:02.664Z,2.60
2023-08-12T19:19:29.808Z,4.90
2023-08-12T19:21:58.283Z,3.60
2023-08-12T19:24:25.403Z,3.67
2023-08-12T19:26:52.668Z,3.30
2023-08-12T19:29:19.749Z,3.07
2023-08-12T19:31:46.941Z,3.00
2023-08-12T19:34:14.061Z,3.10
2023-08-12T19:36:41.127Z,3.10
2023-08-12T19:39:09.576Z,3.20
2023-08-12T19:41:36.740Z,2.97
2023-08-12T19:44:04.025Z,3.10
2023-08-12T19:46:31.211Z,3.37
2023-08-12T19:48:58.401Z,3.30
2023-08-12T19:51:25.593Z,3.63
2023-08-12T19:53:52.701Z,3.90
2023-08-12T19:56:21.159Z,3.80
2023-08-12T19:58:49.285Z,3.93
2023-08-12T20:01:16.458Z,3.17
2023-08-12T20:03:43.667Z,3.27
2023-08-12T20:06:11.474Z,3.47
2023-08-12T20:08:38.614Z,3.67
2023-08-12T20:11:05.772Z,3.10
2023-08-12T20:13:34.291Z,3.40
2023-08-12T20:16:01.420Z,3.13
2023-08-12T20:18:28.593Z,3.37
2023-08-12T20:20:55.729Z,3.87
2023-08-12T20:23:22.829Z,3.00
2023-08-12T20:25:51.342Z,4.60
2023-08-12T20:28:18.439Z,3.70
2023-08-12T20:30:46.899Z,3.07
2023-08-12T20:33:14.194Z,4.40
2023-08-12T20:35:41.362Z,3.80
2023-08-12T20:38:08.428Z,3.70
2023-08-12T20:40:35.518Z,3.93
2023-08-12T20:43:05.059Z,3.60
2023-08-12T20:45:32.196Z,3.93
2023-08-12T20:48:00.680Z,3.20
2023-08-12T20:50:27.941Z,3.67
2023-08-12T20:52:55.078Z,3.63
2023-08-12T20:55:22.226Z,3.80
2023-08-12T20:57:49.370Z,3.60
2023-08-12T21:00:16.628Z,3.53
2023-08-12T21:02:44.306Z,3.60
2023-08-12T21:05:12.897Z,3.80
2023-08-12T21:07:40.004Z,3.90
2023-08-12T21:10:07.633Z,4.37
2023-08-12T21:12:34.759Z,3.67
2023-08-12T21:15:02.898Z,5.23
2023-08-12T21:17:30.144Z,4.33
2023-08-12T21:19:57.352Z,3.53
2023-08-12T21:22:25.902Z,4.40
2023-08-12T21:24:53.070Z,4.13
2023-08-12T21:27:20.492Z,4.50
2023-08-12T21:29:47.722Z,3.77
2023-08-12T21:32:15.012Z,4.00
2023-08-12T21:34:42.350Z,4.13
2023-08-12T21:37:09.516Z,4.37
2023-08-12T21:39:37.952Z,5.30
2023-08-12T21:42:05.114Z,4.17
2023-08-12T21:44:32.310Z,4.30
2023-08-12T21:46:59.396Z,5.70
2023-08-12T21:49:26.505Z,5.07
2023-08-12T21:51:53.649Z,4.80
2023-08-12T21:54:20.729Z,5.97
2023-08-12T21:56:49.174Z,4.63
2023-08-12T21:59:16.326Z,5.17
2023-08-12T22:01:43.432Z,5.07
2023-08-12T22:04:10.660Z,5.00
2023-08-12T22:06:37.749Z,5.70
2023-08-12T22:09:05.331Z,5.23
2023-08-12T22:11:32.522Z,5.80
2023-08-12T22:14:01.085Z,5.43
2023-08-12T22:16:28.273Z,5.50
2023-08-12T22:18:55.408Z,5.70
2023-08-12T22:21:22.544Z,6.13
2023-08-12T22:23:49.700Z,5.27
2023-08-12T22:26:18.039Z,5.70
2023-08-12T22:28:45.195Z,5.20
2023-08-12T22:31:13.656Z,5.27
2023-08-12T22:33:40.825Z,6.43
2023-08-12T22:36:07.918Z,5.50
2023-08-12T22:38:35.055Z,6.37
2023-08-12T22:41:02.204Z,6.27
2023-08-12T22:43:29.312Z,6.27
2023-08-12T22:45:56.436Z,5.60
2023-08-12T22:48:24.879Z,7.13
2023-08-12T22:50:52.043Z,6.60
2023-08-12T22:53:19.196Z,7.17
2023-08-12T22:55:46.333Z,6.57
2023-08-12T22:58:13.437Z,6.90
2023-08-12T23:00:40.615Z,6.60
2023-08-12T23:03:07.898Z,5.70
2023-08-12T23:05:36.571Z,6.53
2023-08-12T23:08:03.803Z,6.40
2023-08-12T23:10:30.876Z,6.50
2023-08-12T23:12:57.983Z,6.90
2023-08-12T23:15:25.122Z,6.67
2023-08-12T23:17:52.284Z,6.53
2023-08-12T23:20:19.416Z,7.30
2023-08-12T23:22:47.878Z,6.40
2023-08-12T23:25:14.957Z,6.43
2023-08-12T23:27:42.089Z,6.83
2023-08-12T23:30:09.691Z,5.80
2023-08-12T23:32:36.853Z,5.90
2023-08-12T23:35:04.234Z,5.70
2023-08-12T23:37:31.316Z,5.90
2023-08-12T23:39:59.752Z,5.80
2023-08-12T23:42:26.912Z,5.27
2023-08-12T23:44:54.023Z,5.93
2023-08-12T23:47:21.102Z,6.53
2023-08-12T23:49:48.191Z,5.53
2023-08-12T23:52:15.569Z,5.00
2023-08-12T23:54:42.935Z,6.43
2023-08-12T23:57:11.395Z,5.50
2023-08-12T23:59:38.471Z,5.83
